Terminal Aerodrome Forecast
Issued by NWS

Home | Current Version | Previous Version | Text Only | Print | Product List | Glossary Off
Versions: 1 2 3 4 5 6 7 8 9 10 11 12 13 14 15

000
FTUS43 KGRB 211734
TAFAUW
TAF
KAUW 211734Z 2118/2218 32007G14KT P6SM VCSH BKN045
     FM212300 27005KT P6SM SCT045
     FM220200 24003KT P6SM SKC
      TEMPO 2208/2211 1/2SM FG OVC002
     FM221500 20007KT P6SM FEW030=

USA.gov is the U.S. government's official web portal to all federal, state and local government web resources and services.